sensor_id;sensor_type;location;lat;lon;timestamp;temperature;humidity
47336;DHT22;33068;51.990;5.926;2023-09-30T00:00:06;11.40;99.90
47336;DHT22;33068;51.990;5.926;2023-09-30T00:02:37;11.50;99.90
47336;DHT22;33068;51.990;5.926;2023-09-30T00:05:05;11.50;99.90
47336;DHT22;33068;51.990;5.926;2023-09-30T00:07:32;11.50;99.90
47336;DHT22;33068;51.990;5.926;2023-09-30T00:10:01;11.50;99.90
47336;DHT22;33068;51.990;5.926;2023-09-30T00:12:29;11.50;99.90
47336;DHT22;33068;51.990;5.926;2023-09-30T00:14:56;11.60;99.90
47336;DHT22;33068;51.990;5.926;2023-09-30T00:17:23;11.60;99.90
47336;DHT22;33068;51.990;5.926;2023-09-30T00:19:50;11.60;99.90
47336;DHT22;33068;51.990;5.926;2023-09-30T00:22:17;11.60;99.90
47336;DHT22;33068;51.990;5.926;2023-09-30T00:24:44;11.60;99.90
47336;DHT22;33068;51.990;5.926;2023-09-30T00:27:13;11.60;99.90
47336;DHT22;33068;51.990;5.926;2023-09-30T00:29:40;11.60;99.90
47336;DHT22;33068;51.990;5.926;2023-09-30T00:32:07;11.60;99.90
47336;DHT22;33068;51.990;5.926;2023-09-30T00:34:35;11.40;99.90
47336;DHT22;33068;51.990;5.926;2023-09-30T00:37:02;11.50;99.90
47336;DHT22;33068;51.990;5.926;2023-09-30T00:39:29;11.60;99.90
47336;DHT22;33068;51.990;5.926;2023-09-30T00:41:57;11.60;99.90
47336;DHT22;33068;51.990;5.926;2023-09-30T00:44:27;11.60;99.90
47336;DHT22;33068;51.990;5.926;2023-09-30T00:46:55;11.50;99.90
47336;DHT22;33068;51.990;5.926;2023-09-30T00:49:23;11.60;99.90
47336;DHT22;33068;51.990;5.926;2023-09-30T00:51:51;11.50;99.90
47336;DHT22;33068;51.990;5.926;2023-09-30T00:54:21;11.50;99.90
47336;DHT22;33068;51.990;5.926;2023-09-30T00:56:50;11.50;99.90
47336;DHT22;33068;51.990;5.926;2023-09-30T00:59:18;11.40;99.90
47336;DHT22;33068;51.990;5.926;2023-09-30T01:01:47;11.40;99.90
47336;DHT22;33068;51.990;5.926;2023-09-30T01:04:15;11.40;99.90
47336;DHT22;33068;51.990;5.926;2023-09-30T01:06:42;11.40;99.90
47336;DHT22;33068;51.990;5.926;2023-09-30T01:09:09;11.40;99.90
47336;DHT22;33068;51.990;5.926;2023-09-30T01:11:39;11.40;99.90
47336;DHT22;33068;51.990;5.926;2023-09-30T01:14:25;11.40;99.90
47336;DHT22;33068;51.990;5.926;2023-09-30T01:16:54;11.40;99.90
47336;DHT22;33068;51.990;5.926;2023-09-30T01:19:22;11.40;99.90
47336;DHT22;33068;51.990;5.926;2023-09-30T01:21:52;11.30;99.90
47336;DHT22;33068;51.990;5.926;2023-09-30T01:24:22;11.30;99.90
47336;DHT22;33068;51.990;5.926;2023-09-30T01:26:49;11.30;99.90
47336;DHT22;33068;51.990;5.926;2023-09-30T01:29:16;11.30;99.90
47336;DHT22;33068;51.990;5.926;2023-09-30T01:31:44;11.30;99.90
47336;DHT22;33068;51.990;5.926;2023-09-30T01:34:14;11.30;99.90
47336;DHT22;33068;51.990;5.926;2023-09-30T01:36:41;11.20;99.90
47336;DHT22;33068;51.990;5.926;2023-09-30T01:39:11;11.10;99.90
47336;DHT22;33068;51.990;5.926;2023-09-30T01:41:39;11.10;99.90
47336;DHT22;33068;51.990;5.926;2023-09-30T01:44:07;11.10;99.90
47336;DHT22;33068;51.990;5.926;2023-09-30T01:46:36;11.10;99.90
47336;DHT22;33068;51.990;5.926;2023-09-30T01:49:03;11.10;99.90
47336;DHT22;33068;51.990;5.926;2023-09-30T01:51:30;11.00;99.90
47336;DHT22;33068;51.990;5.926;2023-09-30T01:53:58;11.00;99.90
47336;DHT22;33068;51.990;5.926;2023-09-30T01:56:26;11.10;99.90
47336;DHT22;33068;51.990;5.926;2023-09-30T01:58:53;11.10;99.90
47336;DHT22;33068;51.990;5.926;2023-09-30T02:01:21;10.90;99.90
47336;DHT22;33068;51.990;5.926;2023-09-30T02:03:48;11.10;99.90
47336;DHT22;33068;51.990;5.926;2023-09-30T02:06:15;11.10;99.90
47336;DHT22;33068;51.990;5.926;2023-09-30T02:08:43;11.00;99.90
47336;DHT22;33068;51.990;5.926;2023-09-30T02:11:12;11.00;99.90
47336;DHT22;33068;51.990;5.926;2023-09-30T02:13:41;11.00;99.90
47336;DHT22;33068;51.990;5.926;2023-09-30T02:16:11;11.10;99.90
47336;DHT22;33068;51.990;5.926;2023-09-30T02:18:39;11.10;99.90
47336;DHT22;33068;51.990;5.926;2023-09-30T02:21:07;11.00;99.90
47336;DHT22;33068;51.990;5.926;2023-09-30T02:23:34;11.00;99.90
47336;DHT22;33068;51.990;5.926;2023-09-30T02:26:02;11.00;99.90
47336;DHT22;33068;51.990;5.926;2023-09-30T02:28:29;11.00;99.90
47336;DHT22;33068;51.990;5.926;2023-09-30T02:30:59;11.00;99.90
47336;DHT22;33068;51.990;5.926;2023-09-30T02:33:27;11.00;99.90
47336;DHT22;33068;51.990;5.926;2023-09-30T02:35:55;11.00;99.90
47336;DHT22;33068;51.990;5.926;2023-09-30T02:38:22;11.00;99.90
47336;DHT22;33068;51.990;5.926;2023-09-30T02:40:50;11.00;99.90
47336;DHT22;33068;51.990;5.926;2023-09-30T02:43:18;11.00;99.90
47336;DHT22;33068;51.990;5.926;2023-09-30T02:45:45;11.20;99.90
47336;DHT22;33068;51.990;5.926;2023-09-30T02:48:14;11.20;99.90
47336;DHT22;33068;51.990;5.926;2023-09-30T02:50:42;11.20;99.90
47336;DHT22;33068;51.990;5.926;2023-09-30T02:53:11;11.30;99.90
47336;DHT22;33068;51.990;5.926;2023-09-30T02:55:38;11.40;99.90
47336;DHT22;33068;51.990;5.926;2023-09-30T02:58:06;11.40;99.90
47336;DHT22;33068;51.990;5.926;2023-09-30T03:00:34;11.40;99.90
47336;DHT22;33068;51.990;5.926;2023-09-30T03:03:03;11.40;99.90
47336;DHT22;33068;51.990;5.926;2023-09-30T03:05:32;11.40;99.90
47336;DHT22;33068;51.990;5.926;2023-09-30T03:08:00;11.40;99.90
47336;DHT22;33068;51.990;5.926;2023-09-30T03:10:27;11.40;99.90
47336;DHT22;33068;51.990;5.926;2023-09-30T03:12:54;11.50;99.90
47336;DHT22;33068;51.990;5.926;2023-09-30T03:15:22;11.30;99.90
47336;DHT22;33068;51.990;5.926;2023-09-30T03:17:50;11.50;99.90
47336;DHT22;33068;51.990;5.926;2023-09-30T03:20:17;11.50;99.90
47336;DHT22;33068;51.990;5.926;2023-09-30T03:22:47;11.50;99.90
47336;DHT22;33068;51.990;5.926;2023-09-30T03:25:16;11.60;99.90
47336;DHT22;33068;51.990;5.926;2023-09-30T03:27:44;11.60;99.90
47336;DHT22;33068;51.990;5.926;2023-09-30T03:30:13;11.60;99.90
47336;DHT22;33068;51.990;5.926;2023-09-30T03:32:40;11.60;99.90
47336;DHT22;33068;51.990;5.926;2023-09-30T03:35:09;11.60;99.90
47336;DHT22;33068;51.990;5.926;2023-09-30T03:37:41;11.60;99.90
47336;DHT22;33068;51.990;5.926;2023-09-30T03:40:11;11.60;99.90
47336;DHT22;33068;51.990;5.926;2023-09-30T03:42:40;11.60;99.90
47336;DHT22;33068;51.990;5.926;2023-09-30T03:45:10;11.60;99.90
47336;DHT22;33068;51.990;5.926;2023-09-30T03:47:39;11.60;99.90
47336;DHT22;33068;51.990;5.926;2023-09-30T03:50:07;11.60;99.90
47336;DHT22;33068;51.990;5.926;2023-09-30T03:52:40;11.60;99.90
47336;DHT22;33068;51.990;5.926;2023-09-30T03:55:11;11.70;99.90
47336;DHT22;33068;51.990;5.926;2023-09-30T03:57:39;11.70;99.90
47336;DHT22;33068;51.990;5.926;2023-09-30T04:00:07;11.70;99.90
47336;DHT22;33068;51.990;5.926;2023-09-30T04:02:40;11.80;99.90
47336;DHT22;33068;51.990;5.926;2023-09-30T04:05:08;11.70;99.90
47336;DHT22;33068;51.990;5.926;2023-09-30T04:07:37;11.70;99.90
47336;DHT22;33068;51.990;5.926;2023-09-30T04:10:05;11.70;99.90
47336;DHT22;33068;51.990;5.926;2023-09-30T04:12:34;11.60;99.90
47336;DHT22;33068;51.990;5.926;2023-09-30T04:15:03;11.60;99.90
47336;DHT22;33068;51.990;5.926;2023-09-30T04:17:31;11.60;99.90
47336;DHT22;33068;51.990;5.926;2023-09-30T04:19:58;11.60;99.90
47336;DHT22;33068;51.990;5.926;2023-09-30T04:22:25;11.70;99.90
47336;DHT22;33068;51.990;5.926;2023-09-30T04:24:55;11.60;99.90
47336;DHT22;33068;51.990;5.926;2023-09-30T04:27:22;11.60;99.90
47336;DHT22;33068;51.990;5.926;2023-09-30T04:29:51;11.60;99.90
47336;DHT22;33068;51.990;5.926;2023-09-30T04:32:19;11.70;99.90
47336;DHT22;33068;51.990;5.926;2023-09-30T04:34:46;11.70;99.90
47336;DHT22;33068;51.990;5.926;2023-09-30T04:37:13;11.70;99.90
47336;DHT22;33068;51.990;5.926;2023-09-30T04:39:40;11.60;99.90
47336;DHT22;33068;51.990;5.926;2023-09-30T04:42:07;11.60;99.90
47336;DHT22;33068;51.990;5.926;2023-09-30T04:44:36;11.70;99.90
47336;DHT22;33068;51.990;5.926;2023-09-30T04:47:06;11.60;99.90
47336;DHT22;33068;51.990;5.926;2023-09-30T04:49:33;11.70;99.90
47336;DHT22;33068;51.990;5.926;2023-09-30T04:52:01;11.60;99.90
47336;DHT22;33068;51.990;5.926;2023-09-30T04:54:28;11.70;99.90
47336;DHT22;33068;51.990;5.926;2023-09-30T04:56:56;11.60;99.90
47336;DHT22;33068;51.990;5.926;2023-09-30T04:59:23;11.70;99.90
47336;DHT22;33068;51.990;5.926;2023-09-30T05:01:51;11.70;99.90
47336;DHT22;33068;51.990;5.926;2023-09-30T05:04:20;11.80;99.90
47336;DHT22;33068;51.990;5.926;2023-09-30T05:06:49;11.80;99.90
47336;DHT22;33068;51.990;5.926;2023-09-30T05:09:16;11.80;99.90
47336;DHT22;33068;51.990;5.926;2023-09-30T05:11:43;11.80;99.90
47336;DHT22;33068;51.990;5.926;2023-09-30T05:14:10;11.80;99.90
47336;DHT22;33068;51.990;5.926;2023-09-30T05:16:38;11.90;99.90
47336;DHT22;33068;51.990;5.926;2023-09-30T05:19:05;11.90;99.90
47336;DHT22;33068;51.990;5.926;2023-09-30T05:21:33;11.80;99.90
47336;DHT22;33068;51.990;5.926;2023-09-30T05:24:03;11.80;99.90
47336;DHT22;33068;51.990;5.926;2023-09-30T05:26:31;11.80;99.90
47336;DHT22;33068;51.990;5.926;2023-09-30T05:28:58;11.80;99.90
47336;DHT22;33068;51.990;5.926;2023-09-30T05:31:25;11.90;99.90
47336;DHT22;33068;51.990;5.926;2023-09-30T05:33:53;11.90;99.90
47336;DHT22;33068;51.990;5.926;2023-09-30T05:36:21;11.80;99.90
47336;DHT22;33068;51.990;5.926;2023-09-30T05:38:49;11.80;99.90
47336;DHT22;33068;51.990;5.926;2023-09-30T05:41:16;11.80;99.90
47336;DHT22;33068;51.990;5.926;2023-09-30T05:43:43;11.80;99.90
47336;DHT22;33068;51.990;5.926;2023-09-30T05:46:11;11.80;99.90
47336;DHT22;33068;51.990;5.926;2023-09-30T05:48:38;11.80;99.90
47336;DHT22;33068;51.990;5.926;2023-09-30T05:51:06;11.80;99.90
47336;DHT22;33068;51.990;5.926;2023-09-30T05:53:33;11.60;99.90
47336;DHT22;33068;51.990;5.926;2023-09-30T05:56:03;11.80;99.90
47336;DHT22;33068;51.990;5.926;2023-09-30T05:58:30;11.80;99.90
47336;DHT22;33068;51.990;5.926;2023-09-30T06:00:57;11.80;99.90
47336;DHT22;33068;51.990;5.926;2023-09-30T06:03:26;11.90;99.90
47336;DHT22;33068;51.990;5.926;2023-09-30T06:05:55;11.90;99.90
47336;DHT22;33068;51.990;5.926;2023-09-30T06:08:22;11.90;99.90
47336;DHT22;33068;51.990;5.926;2023-09-30T06:10:49;11.90;99.90
47336;DHT22;33068;51.990;5.926;2023-09-30T06:13:18;11.90;99.90
47336;DHT22;33068;51.990;5.926;2023-09-30T06:15:47;11.90;99.90
47336;DHT22;33068;51.990;5.926;2023-09-30T06:18:16;11.90;99.90
47336;DHT22;33068;51.990;5.926;2023-09-30T06:20:43;11.90;99.90
47336;DHT22;33068;51.990;5.926;2023-09-30T06:23:10;11.90;99.90
47336;DHT22;33068;51.990;5.926;2023-09-30T06:25:37;12.00;99.90
47336;DHT22;33068;51.990;5.926;2023-09-30T06:28:05;12.00;99.90
47336;DHT22;33068;51.990;5.926;2023-09-30T06:30:37;12.00;99.90
47336;DHT22;33068;51.990;5.926;2023-09-30T06:33:08;12.00;99.90
47336;DHT22;33068;51.990;5.926;2023-09-30T06:35:37;12.00;99.90
47336;DHT22;33068;51.990;5.926;2023-09-30T06:38:06;12.00;99.90
47336;DHT22;33068;51.990;5.926;2023-09-30T06:40:33;12.10;99.90
47336;DHT22;33068;51.990;5.926;2023-09-30T06:43:03;12.10;99.90
47336;DHT22;33068;51.990;5.926;2023-09-30T06:45:31;12.10;99.90
47336;DHT22;33068;51.990;5.926;2023-09-30T06:48:00;12.10;99.90
47336;DHT22;33068;51.990;5.926;2023-09-30T06:50:27;12.10;99.90
47336;DHT22;33068;51.990;5.926;2023-09-30T06:52:54;12.20;99.90
47336;DHT22;33068;51.990;5.926;2023-09-30T06:55:21;12.20;99.90
47336;DHT22;33068;51.990;5.926;2023-09-30T06:57:48;12.30;99.90
47336;DHT22;33068;51.990;5.926;2023-09-30T07:00:15;12.30;99.90
47336;DHT22;33068;51.990;5.926;2023-09-30T07:02:43;12.30;99.90
47336;DHT22;33068;51.990;5.926;2023-09-30T07:05:13;12.40;99.90
47336;DHT22;33068;51.990;5.926;2023-09-30T07:07:41;12.40;99.90
47336;DHT22;33068;51.990;5.926;2023-09-30T07:10:09;12.50;99.90
47336;DHT22;33068;51.990;5.926;2023-09-30T07:12:37;12.50;99.90
47336;DHT22;33068;51.990;5.926;2023-09-30T07:15:06;12.50;99.90
47336;DHT22;33068;51.990;5.926;2023-09-30T07:17:34;12.60;99.90
47336;DHT22;33068;51.990;5.926;2023-09-30T07:20:01;12.60;99.90
47336;DHT22;33068;51.990;5.926;2023-09-30T07:22:32;12.70;99.90
47336;DHT22;33068;51.990;5.926;2023-09-30T07:24:59;12.70;99.90
47336;DHT22;33068;51.990;5.926;2023-09-30T07:27:26;12.70;99.90
47336;DHT22;33068;51.990;5.926;2023-09-30T07:29:53;12.80;99.90
47336;DHT22;33068;51.990;5.926;2023-09-30T07:32:20;12.80;99.90
47336;DHT22;33068;51.990;5.926;2023-09-30T07:34:49;12.90;99.90
47336;DHT22;33068;51.990;5.926;2023-09-30T07:37:16;12.90;99.90
47336;DHT22;33068;51.990;5.926;2023-09-30T07:39:46;13.00;99.90
47336;DHT22;33068;51.990;5.926;2023-09-30T07:42:13;13.00;99.90
47336;DHT22;33068;51.990;5.926;2023-09-30T07:44:40;13.00;99.90
47336;DHT22;33068;51.990;5.926;2023-09-30T07:47:07;13.10;99.90
47336;DHT22;33068;51.990;5.926;2023-09-30T07:49:34;13.10;99.90
47336;DHT22;33068;51.990;5.926;2023-09-30T07:52:01;13.20;99.90
47336;DHT22;33068;51.990;5.926;2023-09-30T07:54:30;13.20;99.90
47336;DHT22;33068;51.990;5.926;2023-09-30T07:56:58;13.30;99.90
47336;DHT22;33068;51.990;5.926;2023-09-30T07:59:25;13.30;99.90
47336;DHT22;33068;51.990;5.926;2023-09-30T08:01:52;13.40;99.90
47336;DHT22;33068;51.990;5.926;2023-09-30T08:04:19;13.40;99.90
47336;DHT22;33068;51.990;5.926;2023-09-30T08:06:46;13.50;99.90
47336;DHT22;33068;51.990;5.926;2023-09-30T08:09:14;13.50;99.90
47336;DHT22;33068;51.990;5.926;2023-09-30T08:11:41;13.60;99.90
47336;DHT22;33068;51.990;5.926;2023-09-30T08:14:10;13.70;99.90
47336;DHT22;33068;51.990;5.926;2023-09-30T08:16:37;13.80;99.90
47336;DHT22;33068;51.990;5.926;2023-09-30T08:19:05;13.80;99.90
47336;DHT22;33068;51.990;5.926;2023-09-30T08:21:33;13.90;99.90
47336;DHT22;33068;51.990;5.926;2023-09-30T08:24:01;14.00;99.90
47336;DHT22;33068;51.990;5.926;2023-09-30T08:26:28;14.00;99.90
47336;DHT22;33068;51.990;5.926;2023-09-30T08:28:55;14.10;99.90
47336;DHT22;33068;51.990;5.926;2023-09-30T08:31:24;14.20;99.90
47336;DHT22;33068;51.990;5.926;2023-09-30T08:33:51;14.30;99.90
47336;DHT22;33068;51.990;5.926;2023-09-30T08:36:18;14.40;99.90
47336;DHT22;33068;51.990;5.926;2023-09-30T08:38:45;14.40;99.90
47336;DHT22;33068;51.990;5.926;2023-09-30T08:41:24;14.50;99.90
47336;DHT22;33068;51.990;5.926;2023-09-30T08:43:53;14.60;99.90
47336;DHT22;33068;51.990;5.926;2023-09-30T08:46:25;14.60;99.90
47336;DHT22;33068;51.990;5.926;2023-09-30T08:48:53;14.80;99.90
47336;DHT22;33068;51.990;5.926;2023-09-30T08:51:20;15.00;99.90
47336;DHT22;33068;51.990;5.926;2023-09-30T08:53:48;15.20;99.90
47336;DHT22;33068;51.990;5.926;2023-09-30T08:56:16;15.30;99.90
47336;DHT22;33068;51.990;5.926;2023-09-30T08:58:45;15.40;99.90
47336;DHT22;33068;51.990;5.926;2023-09-30T09:01:12;15.50;99.90
47336;DHT22;33068;51.990;5.926;2023-09-30T09:03:41;15.50;99.90
47336;DHT22;33068;51.990;5.926;2023-09-30T09:06:08;15.50;99.90
47336;DHT22;33068;51.990;5.926;2023-09-30T09:08:35;15.60;99.90
47336;DHT22;33068;51.990;5.926;2023-09-30T09:11:03;15.70;99.90
47336;DHT22;33068;51.990;5.926;2023-09-30T09:13:45;15.80;99.90
47336;DHT22;33068;51.990;5.926;2023-09-30T09:16:15;15.90;99.90
47336;DHT22;33068;51.990;5.926;2023-09-30T09:18:45;16.00;99.90
47336;DHT22;33068;51.990;5.926;2023-09-30T09:21:15;16.10;99.90
47336;DHT22;33068;51.990;5.926;2023-09-30T09:23:44;16.20;99.90
47336;DHT22;33068;51.990;5.926;2023-09-30T09:26:12;16.40;99.90
47336;DHT22;33068;51.990;5.926;2023-09-30T09:28:39;16.70;99.90
47336;DHT22;33068;51.990;5.926;2023-09-30T09:31:21;17.00;99.90
47336;DHT22;33068;51.990;5.926;2023-09-30T09:33:51;17.40;99.90
47336;DHT22;33068;51.990;5.926;2023-09-30T09:36:19;17.50;99.90
47336;DHT22;33068;51.990;5.926;2023-09-30T09:38:48;17.80;99.90
47336;DHT22;33068;51.990;5.926;2023-09-30T09:41:16;17.90;99.90
47336;DHT22;33068;51.990;5.926;2023-09-30T09:43:44;18.00;99.90
47336;DHT22;33068;51.990;5.926;2023-09-30T09:46:11;18.00;99.90
47336;DHT22;33068;51.990;5.926;2023-09-30T09:48:39;18.20;99.90
47336;DHT22;33068;51.990;5.926;2023-09-30T09:51:09;18.30;99.90
47336;DHT22;33068;51.990;5.926;2023-09-30T09:53:39;18.40;99.90
47336;DHT22;33068;51.990;5.926;2023-09-30T09:56:08;18.50;99.90
47336;DHT22;33068;51.990;5.926;2023-09-30T09:58:39;18.50;99.90
47336;DHT22;33068;51.990;5.926;2023-09-30T10:01:09;18.50;99.90
47336;DHT22;33068;51.990;5.926;2023-09-30T10:03:39;18.60;99.90
47336;DHT22;33068;51.990;5.926;2023-09-30T10:06:06;18.70;99.90
47336;DHT22;33068;51.990;5.926;2023-09-30T10:08:41;18.80;99.90
47336;DHT22;33068;51.990;5.926;2023-09-30T10:11:16;19.00;99.90
47336;DHT22;33068;51.990;5.926;2023-09-30T10:13:53;19.10;99.90
47336;DHT22;33068;51.990;5.926;2023-09-30T10:16:50;19.20;99.90
47336;DHT22;33068;51.990;5.926;2023-09-30T10:19:19;19.20;99.90
47336;DHT22;33068;51.990;5.926;2023-09-30T10:22:22;19.10;99.90
47336;DHT22;33068;51.990;5.926;2023-09-30T10:24:53;19.20;99.90
47336;DHT22;33068;51.990;5.926;2023-09-30T10:27:36;19.30;99.90
47336;DHT22;33068;51.990;5.926;2023-09-30T10:30:10;19.30;99.90
47336;DHT22;33068;51.990;5.926;2023-09-30T10:33:13;19.00;99.90
47336;DHT22;33068;51.990;5.926;2023-09-30T10:35:46;19.10;99.90
47336;DHT22;33068;51.990;5.926;2023-09-30T10:38:38;19.30;99.90
47336;DHT22;33068;51.990;5.926;2023-09-30T10:41:10;19.20;99.90
47336;DHT22;33068;51.990;5.926;2023-09-30T10:43:39;18.90;99.90
47336;DHT22;33068;51.990;5.926;2023-09-30T10:46:32;18.70;99.90
47336;DHT22;33068;51.990;5.926;2023-09-30T10:49:15;18.60;99.90
47336;DHT22;33068;51.990;5.926;2023-09-30T10:51:44;18.60;99.90
47336;DHT22;33068;51.990;5.926;2023-09-30T10:54:13;18.90;99.90
47336;DHT22;33068;51.990;5.926;2023-09-30T10:56:41;19.10;99.90
47336;DHT22;33068;51.990;5.926;2023-09-30T10:59:08;19.40;99.90
47336;DHT22;33068;51.990;5.926;2023-09-30T11:01:35;19.50;99.90
47336;DHT22;33068;51.990;5.926;2023-09-30T11:04:04;19.70;99.90
47336;DHT22;33068;51.990;5.926;2023-09-30T11:06:32;19.90;99.90
47336;DHT22;33068;51.990;5.926;2023-09-30T11:09:00;20.00;99.90
47336;DHT22;33068;51.990;5.926;2023-09-30T11:11:33;20.10;99.90
47336;DHT22;33068;51.990;5.926;2023-09-30T11:14:02;20.30;99.90
47336;DHT22;33068;51.990;5.926;2023-09-30T11:16:40;19.90;99.90
47336;DHT22;33068;51.990;5.926;2023-09-30T11:19:09;19.70;99.90
47336;DHT22;33068;51.990;5.926;2023-09-30T11:21:36;19.50;99.90
47336;DHT22;33068;51.990;5.926;2023-09-30T11:24:04;19.30;99.90
47336;DHT22;33068;51.990;5.926;2023-09-30T11:26:32;19.30;99.90
47336;DHT22;33068;51.990;5.926;2023-09-30T11:29:07;19.20;99.90
47336;DHT22;33068;51.990;5.926;2023-09-30T11:31:37;19.20;99.90
47336;DHT22;33068;51.990;5.926;2023-09-30T11:34:04;19.20;99.90
47336;DHT22;33068;51.990;5.926;2023-09-30T11:36:34;19.20;99.90
47336;DHT22;33068;51.990;5.926;2023-09-30T11:39:02;19.20;99.90
47336;DHT22;33068;51.990;5.926;2023-09-30T11:41:33;19.20;99.90
47336;DHT22;33068;51.990;5.926;2023-09-30T11:44:05;19.20;99.90
47336;DHT22;33068;51.990;5.926;2023-09-30T11:46:48;19.30;99.90
47336;DHT22;33068;51.990;5.926;2023-09-30T11:49:25;19.50;99.90
47336;DHT22;33068;51.990;5.926;2023-09-30T11:51:53;19.90;99.90
47336;DHT22;33068;51.990;5.926;2023-09-30T11:54:21;20.30;99.90
47336;DHT22;33068;51.990;5.926;2023-09-30T11:56:49;20.70;99.90
47336;DHT22;33068;51.990;5.926;2023-09-30T11:59:18;21.00;99.90
47336;DHT22;33068;51.990;5.926;2023-09-30T12:01:48;21.20;99.90
47336;DHT22;33068;51.990;5.926;2023-09-30T12:04:15;21.40;99.90
47336;DHT22;33068;51.990;5.926;2023-09-30T12:06:45;21.50;99.90
47336;DHT22;33068;51.990;5.926;2023-09-30T12:09:14;21.80;99.90
47336;DHT22;33068;51.990;5.926;2023-09-30T12:11:42;21.90;99.90
47336;DHT22;33068;51.990;5.926;2023-09-30T12:14:10;22.00;99.90
47336;DHT22;33068;51.990;5.926;2023-09-30T12:16:39;22.00;99.90
47336;DHT22;33068;51.990;5.926;2023-09-30T12:19:07;22.00;99.80
47336;DHT22;33068;51.990;5.926;2023-09-30T12:21:35;21.60;99.90
47336;DHT22;33068;51.990;5.926;2023-09-30T12:24:02;21.50;99.90
47336;DHT22;33068;51.990;5.926;2023-09-30T12:26:30;21.40;99.90
47336;DHT22;33068;51.990;5.926;2023-09-30T12:28:57;21.40;99.90
47336;DHT22;33068;51.990;5.926;2023-09-30T12:31:25;21.50;98.90
47336;DHT22;33068;51.990;5.926;2023-09-30T12:33:53;21.20;99.90
47336;DHT22;33068;51.990;5.926;2023-09-30T12:36:21;20.90;99.90
47336;DHT22;33068;51.990;5.926;2023-09-30T12:38:48;20.70;99.90
47336;DHT22;33068;51.990;5.926;2023-09-30T12:41:15;20.50;99.90
47336;DHT22;33068;51.990;5.926;2023-09-30T12:43:45;20.30;99.90
47336;DHT22;33068;51.990;5.926;2023-09-30T12:46:12;20.10;99.90
47336;DHT22;33068;51.990;5.926;2023-09-30T12:48:44;20.00;99.90
47336;DHT22;33068;51.990;5.926;2023-09-30T12:51:13;20.00;99.90
47336;DHT22;33068;51.990;5.926;2023-09-30T12:53:40;20.20;99.90
47336;DHT22;33068;51.990;5.926;2023-09-30T12:56:07;20.50;99.90
47336;DHT22;33068;51.990;5.926;2023-09-30T12:58:34;20.50;99.90
47336;DHT22;33068;51.990;5.926;2023-09-30T13:01:01;20.50;99.90
47336;DHT22;33068;51.990;5.926;2023-09-30T13:03:28;20.60;99.90
47336;DHT22;33068;51.990;5.926;2023-09-30T13:05:55;20.70;99.90
47336;DHT22;33068;51.990;5.926;2023-09-30T13:08:24;20.70;99.90
47336;DHT22;33068;51.990;5.926;2023-09-30T13:10:51;20.80;99.90
47336;DHT22;33068;51.990;5.926;2023-09-30T13:13:18;20.70;99.90
47336;DHT22;33068;51.990;5.926;2023-09-30T13:15:45;20.80;99.90
47336;DHT22;33068;51.990;5.926;2023-09-30T13:18:12;20.70;99.90
47336;DHT22;33068;51.990;5.926;2023-09-30T13:20:39;20.80;99.90
47336;DHT22;33068;51.990;5.926;2023-09-30T13:23:07;20.80;99.90
47336;DHT22;33068;51.990;5.926;2023-09-30T13:25:35;20.90;99.90
47336;DHT22;33068;51.990;5.926;2023-09-30T13:28:03;20.90;99.90
47336;DHT22;33068;51.990;5.926;2023-09-30T13:30:30;20.90;99.90
47336;DHT22;33068;51.990;5.926;2023-09-30T13:32:58;21.10;99.90
47336;DHT22;33068;51.990;5.926;2023-09-30T13:35:25;21.20;99.90
47336;DHT22;33068;51.990;5.926;2023-09-30T13:37:52;21.30;99.90
47336;DHT22;33068;51.990;5.926;2023-09-30T13:40:19;21.10;99.90
47336;DHT22;33068;51.990;5.926;2023-09-30T13:42:47;21.20;99.90
47336;DHT22;33068;51.990;5.926;2023-09-30T13:45:15;21.00;99.90
47336;DHT22;33068;51.990;5.926;2023-09-30T13:47:44;20.90;99.90
47336;DHT22;33068;51.990;5.926;2023-09-30T13:50:11;20.90;99.90
47336;DHT22;33068;51.990;5.926;2023-09-30T13:52:38;21.00;99.90
47336;DHT22;33068;51.990;5.926;2023-09-30T13:55:05;20.90;99.90
47336;DHT22;33068;51.990;5.926;2023-09-30T13:57:34;20.90;99.90
47336;DHT22;33068;51.990;5.926;2023-09-30T14:00:03;21.00;99.90
47336;DHT22;33068;51.990;5.926;2023-09-30T14:02:32;20.90;99.90
47336;DHT22;33068;51.990;5.926;2023-09-30T14:04:59;20.60;99.90
47336;DHT22;33068;51.990;5.926;2023-09-30T14:07:28;20.60;99.90
47336;DHT22;33068;51.990;5.926;2023-09-30T14:09:55;20.50;99.90
47336;DHT22;33068;51.990;5.926;2023-09-30T14:12:22;20.40;99.90
47336;DHT22;33068;51.990;5.926;2023-09-30T14:14:49;20.40;99.90
47336;DHT22;33068;51.990;5.926;2023-09-30T14:17:18;20.40;99.90
47336;DHT22;33068;51.990;5.926;2023-09-30T14:19:45;20.40;99.90
47336;DHT22;33068;51.990;5.926;2023-09-30T14:22:12;20.40;99.90
47336;DHT22;33068;51.990;5.926;2023-09-30T14:24:40;20.30;99.90
47336;DHT22;33068;51.990;5.926;2023-09-30T14:27:07;20.30;99.90
47336;DHT22;33068;51.990;5.926;2023-09-30T14:29:34;20.40;99.90
47336;DHT22;33068;51.990;5.926;2023-09-30T14:32:01;20.40;99.90
47336;DHT22;33068;51.990;5.926;2023-09-30T14:34:30;20.40;99.90
47336;DHT22;33068;51.990;5.926;2023-09-30T14:36:57;20.20;99.90
47336;DHT22;33068;51.990;5.926;2023-09-30T14:39:24;20.20;99.90
47336;DHT22;33068;51.990;5.926;2023-09-30T14:41:52;20.20;99.90
47336;DHT22;33068;51.990;5.926;2023-09-30T14:44:19;20.20;99.90
47336;DHT22;33068;51.990;5.926;2023-09-30T14:46:49;20.20;99.90
47336;DHT22;33068;51.990;5.926;2023-09-30T14:49:16;20.30;99.90
47336;DHT22;33068;51.990;5.926;2023-09-30T14:51:44;20.40;99.90
47336;DHT22;33068;51.990;5.926;2023-09-30T14:54:14;20.50;99.90
47336;DHT22;33068;51.990;5.926;2023-09-30T14:56:41;20.50;99.90
47336;DHT22;33068;51.990;5.926;2023-09-30T14:59:08;20.50;99.90
47336;DHT22;33068;51.990;5.926;2023-09-30T15:01:35;20.40;99.90
47336;DHT22;33068;51.990;5.926;2023-09-30T15:04:02;20.30;99.90
47336;DHT22;33068;51.990;5.926;2023-09-30T15:06:30;20.20;99.90
47336;DHT22;33068;51.990;5.926;2023-09-30T15:08:58;20.10;99.90
47336;DHT22;33068;51.990;5.926;2023-09-30T15:11:25;20.00;99.90
47336;DHT22;33068;51.990;5.926;2023-09-30T15:13:52;20.10;99.90
47336;DHT22;33068;51.990;5.926;2023-09-30T15:16:21;20.00;99.90
47336;DHT22;33068;51.990;5.926;2023-09-30T15:18:49;20.00;99.90
47336;DHT22;33068;51.990;5.926;2023-09-30T15:21:16;20.00;99.90
47336;DHT22;33068;51.990;5.926;2023-09-30T15:23:45;20.00;99.90
47336;DHT22;33068;51.990;5.926;2023-09-30T15:26:13;19.80;99.90
47336;DHT22;33068;51.990;5.926;2023-09-30T15:28:41;19.80;99.90
47336;DHT22;33068;51.990;5.926;2023-09-30T15:31:10;19.80;99.90
47336;DHT22;33068;51.990;5.926;2023-09-30T15:33:37;19.80;99.90
47336;DHT22;33068;51.990;5.926;2023-09-30T15:36:11;19.90;99.90
47336;DHT22;33068;51.990;5.926;2023-09-30T15:38:38;19.90;99.90